createdAt,value
2023-05-21T00:01:50.020Z,18.07
2023-05-21T00:04:18.272Z,14.37
2023-05-21T00:06:46.483Z,14.27
2023-05-21T00:09:14.734Z,13.33
2023-05-21T00:11:44.295Z,13.63
2023-05-21T00:14:12.414Z,12.43
2023-05-21T00:16:40.624Z,13.63
2023-05-21T00:19:10.413Z,12.83
2023-05-21T00:21:39.628Z,15.30
2023-05-21T00:24:08.061Z,14.40
2023-05-21T00:26:36.242Z,14.43
2023-05-21T00:29:05.780Z,14.47
2023-05-21T00:31:34.009Z,13.77
2023-05-21T00:34:02.171Z,14.17
2023-05-21T00:36:30.936Z,13.20
2023-05-21T00:38:59.143Z,14.13
2023-05-21T00:41:27.256Z,16.10
2023-05-21T00:43:56.456Z,14.07
2023-05-21T00:46:28.705Z,13.33
2023-05-21T00:48:58.152Z,14.30
2023-05-21T00:51:30.369Z,13.30
2023-05-21T00:53:58.563Z,13.57
2023-05-21T00:56:27.837Z,14.50
2023-05-21T00:58:57.306Z,13.63
2023-05-21T01:01:26.906Z,13.37
2023-05-21T01:03:57.939Z,17.67
2023-05-21T01:06:26.275Z,15.27
2023-05-21T01:08:56.268Z,17.37
2023-05-21T01:11:24.879Z,14.97
2023-05-21T01:13:52.974Z,13.73
2023-05-21T01:16:21.471Z,14.33
2023-05-21T01:18:51.858Z,14.43
2023-05-21T01:21:20.160Z,13.73
2023-05-21T01:23:49.798Z,13.80
2023-05-21T01:26:18.593Z,14.50
2023-05-21T01:28:47.110Z,13.60
2023-05-21T01:31:21.573Z,14.07
2023-05-21T01:33:51.289Z,14.67
2023-05-21T01:36:24.316Z,15.13
2023-05-21T01:38:56.764Z,13.70
2023-05-21T01:41:24.968Z,12.53
2023-05-21T01:43:53.078Z,14.17
2023-05-21T01:46:23.102Z,14.63
2023-05-21T01:48:51.693Z,12.87
2023-05-21T01:51:19.881Z,16.13
2023-05-21T01:53:48.008Z,13.03
2023-05-21T01:56:17.608Z,12.83
2023-05-21T01:58:45.766Z,14.00
2023-05-21T02:01:14.045Z,12.73
2023-05-21T02:03:42.289Z,13.53
2023-05-21T02:06:10.619Z,12.97
2023-05-21T02:08:38.742Z,13.63
2023-05-21T02:11:06.985Z,13.37
2023-05-21T02:13:42.880Z,12.40
2023-05-21T02:16:11.980Z,15.67
2023-05-21T02:18:42.213Z,13.30
2023-05-21T02:21:11.507Z,12.87
2023-05-21T02:23:39.647Z,12.47
2023-05-21T02:26:07.816Z,14.27
2023-05-21T02:28:37.329Z,17.30
2023-05-21T02:31:05.574Z,14.47
2023-05-21T02:33:33.817Z,13.17
2023-05-21T02:36:01.962Z,15.13
2023-05-21T02:38:30.115Z,14.40
2023-05-21T02:40:58.220Z,12.50
2023-05-21T02:43:26.371Z,12.90
2023-05-21T02:45:56.424Z,13.50
2023-05-21T02:48:24.602Z,13.00
2023-05-21T02:50:53.123Z,15.10
2023-05-21T02:53:21.226Z,12.63
2023-05-21T02:55:49.436Z,14.80
2023-05-21T02:58:17.700Z,13.77
2023-05-21T03:00:45.913Z,14.57
2023-05-21T03:03:16.278Z,13.07
2023-05-21T03:05:45.896Z,14.37
2023-05-21T03:08:14.031Z,12.20
2023-05-21T03:10:42.216Z,13.07
2023-05-21T03:13:10.761Z,12.73
2023-05-21T03:15:39.725Z,13.17
2023-05-21T03:18:08.109Z,12.93
2023-05-21T03:20:43.659Z,15.37
2023-05-21T03:23:14.880Z,12.23
2023-05-21T03:25:46.122Z,14.30
2023-05-21T03:28:14.372Z,12.67
2023-05-21T03:30:46.500Z,11.90
2023-05-21T03:33:15.668Z,11.67
2023-05-21T03:35:45.264Z,13.20
2023-05-21T03:38:13.395Z,13.37
2023-05-21T03:40:41.559Z,11.53
2023-05-21T03:43:09.747Z,12.40
2023-05-21T03:45:38.618Z,14.00
2023-05-21T03:48:07.782Z,14.30
2023-05-21T03:50:36.747Z,13.13
2023-05-21T03:53:06.264Z,12.03
2023-05-21T03:55:34.532Z,12.90
2023-05-21T03:58:02.838Z,14.40
2023-05-21T04:00:32.645Z,13.90
2023-05-21T04:03:00.905Z,11.93
2023-05-21T04:05:29.170Z,14.67
2023-05-21T04:07:58.828Z,11.70
2023-05-21T04:10:28.378Z,11.97
2023-05-21T04:12:56.598Z,10.70
2023-05-21T04:15:24.750Z,10.43
2023-05-21T04:17:53.507Z,11.57
2023-05-21T04:20:21.719Z,11.77
2023-05-21T04:22:50.457Z,13.80
2023-05-21T04:25:20.464Z,10.63
2023-05-21T04:27:50.254Z,9.63
2023-05-21T04:30:20.118Z,10.27
2023-05-21T04:32:48.341Z,14.23
2023-05-21T04:35:16.832Z,9.73
2023-05-21T04:37:46.095Z,11.17
2023-05-21T04:40:18.248Z,9.57
2023-05-21T04:42:46.973Z,10.90
2023-05-21T04:45:17.214Z,10.30
2023-05-21T04:47:46.270Z,8.43
2023-05-21T04:50:14.815Z,8.97
2023-05-21T04:52:45.654Z,10.50
2023-05-21T04:55:13.869Z,9.70
2023-05-21T04:57:42.009Z,9.70
2023-05-21T05:00:10.983Z,9.60
2023-05-21T05:02:40.813Z,9.03
2023-05-21T05:05:09.630Z,9.80
2023-05-21T05:07:38.084Z,8.47
2023-05-21T05:10:07.360Z,9.33
2023-05-21T05:12:35.493Z,8.47
2023-05-21T05:15:03.692Z,9.63
2023-05-21T05:17:31.946Z,9.40
2023-05-21T05:20:01.546Z,9.17
2023-05-21T05:22:29.772Z,7.93
2023-05-21T05:24:57.936Z,7.90
2023-05-21T05:27:26.389Z,7.70
2023-05-21T05:29:54.523Z,9.60
2023-05-21T05:32:22.683Z,9.13
2023-05-21T05:34:50.865Z,7.03
2023-05-21T05:37:20.426Z,8.00
2023-05-21T05:39:48.570Z,9.63
2023-05-21T05:42:16.699Z,7.67
2023-05-21T05:44:44.803Z,11.23
2023-05-21T05:47:13.060Z,8.57
2023-05-21T05:49:41.743Z,7.47
2023-05-21T05:52:10.293Z,9.10
2023-05-21T05:54:39.853Z,9.20
2023-05-21T05:57:07.952Z,7.13
2023-05-21T05:59:36.156Z,8.80
2023-05-21T06:02:04.354Z,7.67
2023-05-21T06:04:32.502Z,6.87
2023-05-21T06:07:01.039Z,6.67
2023-05-21T06:09:29.277Z,6.90
2023-05-21T06:11:58.908Z,8.87
2023-05-21T06:14:27.033Z,8.67
2023-05-21T06:16:55.317Z,7.70
2023-05-21T06:19:23.512Z,9.13
2023-05-21T06:21:51.677Z,9.63
2023-05-21T06:24:19.834Z,7.63
2023-05-21T06:26:47.974Z,7.20
2023-05-21T06:29:18.336Z,6.63
2023-05-21T06:31:46.500Z,7.53
2023-05-21T06:34:14.796Z,8.23
2023-05-21T06:36:43.046Z,7.07
2023-05-21T06:39:11.308Z,8.83
2023-05-21T06:41:39.557Z,7.57
2023-05-21T06:44:07.673Z,6.23
2023-05-21T06:46:37.237Z,7.30
2023-05-21T06:49:07.174Z,7.07
2023-05-21T06:51:35.496Z,12.77
2023-05-21T06:54:03.634Z,5.90
2023-05-21T06:56:31.792Z,5.90
2023-05-21T06:59:00.113Z,5.50
2023-05-21T07:01:28.333Z,6.67
2023-05-21T07:03:58.023Z,5.87
2023-05-21T07:06:26.324Z,8.97
2023-05-21T07:08:54.477Z,5.80
2023-05-21T07:11:22.673Z,9.73
2023-05-21T07:13:51.087Z,5.83
2023-05-21T07:16:19.277Z,6.43
2023-05-21T07:18:47.439Z,7.60
2023-05-21T07:21:17.417Z,5.57
2023-05-21T07:23:45.751Z,9.40
2023-05-21T07:26:13.910Z,8.57
2023-05-21T07:28:42.057Z,13.20
2023-05-21T07:31:12.334Z,5.77
2023-05-21T07:33:41.056Z,5.53
2023-05-21T07:36:09.380Z,6.77
2023-05-21T07:38:40.234Z,7.90
2023-05-21T07:41:08.432Z,5.77
2023-05-21T07:43:37.054Z,7.00
2023-05-21T07:46:05.343Z,8.67
2023-05-21T07:48:35.456Z,6.90
2023-05-21T07:51:04.988Z,6.83
2023-05-21T07:53:33.447Z,6.93
2023-05-21T07:56:02.979Z,7.07
2023-05-21T07:58:31.241Z,4.50
2023-05-21T08:00:59.383Z,6.27
2023-05-21T08:03:27.991Z,6.03
2023-05-21T08:05:56.718Z,6.80
2023-05-21T08:08:24.949Z,7.93
2023-05-21T08:10:53.102Z,5.10
2023-05-21T08:13:22.795Z,7.77
2023-05-21T08:15:52.890Z,7.63
2023-05-21T08:18:23.916Z,6.80
2023-05-21T08:20:52.247Z,5.17
2023-05-21T08:23:20.387Z,7.77
2023-05-21T08:25:48.547Z,4.87
2023-05-21T08:28:16.910Z,4.97
2023-05-21T08:30:46.565Z,4.23
2023-05-21T08:33:15.259Z,7.57
2023-05-21T08:35:43.423Z,6.63
2023-05-21T08:38:11.612Z,6.70
2023-05-21T08:40:41.566Z,6.23
2023-05-21T08:43:13.840Z,8.77
2023-05-21T08:45:44.077Z,7.10
2023-05-21T08:48:13.633Z,5.37
2023-05-21T08:50:41.783Z,5.40
2023-05-21T08:53:16.055Z,5.35
2023-05-21T08:55:55.798Z,3.60
2023-05-21T08:58:23.941Z,6.10
2023-05-21T09:00:52.215Z,6.30
2023-05-21T09:03:22.567Z,8.88
2023-05-21T09:05:51.330Z,5.22
2023-05-21T09:08:20.753Z,6.00
2023-05-21T09:10:51.370Z,7.25
2023-05-21T09:13:19.795Z,7.93
2023-05-21T09:15:48.024Z,7.65
2023-05-21T09:18:16.249Z,8.82
2023-05-21T09:20:46.118Z,4.15
2023-05-21T09:23:17.081Z,7.07
2023-05-21T09:25:46.754Z,3.10
2023-05-21T09:28:15.252Z,4.28
2023-05-21T09:30:46.941Z,5.63
2023-05-21T09:33:15.133Z,5.75
2023-05-21T09:35:48.102Z,8.02
2023-05-21T09:38:16.225Z,9.88
2023-05-21T09:40:46.372Z,6.38
2023-05-21T09:43:15.948Z,5.07
2023-05-21T09:45:52.377Z,5.05
2023-05-21T09:48:34.210Z,5.90
2023-05-21T09:51:14.466Z,5.57
2023-05-21T09:53:50.096Z,4.05
2023-05-21T09:56:23.842Z,5.25
2023-05-21T09:58:54.942Z,4.78
2023-05-21T10:01:23.188Z,4.72
2023-05-21T10:03:52.426Z,5.82
2023-05-21T10:06:22.125Z,14.40
2023-05-21T10:08:50.442Z,3.75
2023-05-21T10:11:18.843Z,5.45
2023-05-21T10:13:48.308Z,4.07
2023-05-21T10:16:16.513Z,4.40
2023-05-21T10:18:46.440Z,5.68
2023-05-21T10:21:14.786Z,3.25
2023-05-21T10:23:44.422Z,5.63
2023-05-21T10:26:14.795Z,4.47
2023-05-21T10:28:42.966Z,4.22
2023-05-21T10:31:11.255Z,2.67
2023-05-21T10:33:39.510Z,6.20
2023-05-21T10:36:07.799Z,5.93
2023-05-21T10:38:35.957Z,2.90
2023-05-21T10:41:19.345Z,4.85
2023-05-21T10:43:53.210Z,4.60
2023-05-21T10:46:30.556Z,5.45
2023-05-21T10:49:09.509Z,5.22
2023-05-21T10:51:42.308Z,3.05
2023-05-21T10:54:21.243Z,3.00
2023-05-21T10:56:55.801Z,8.05
2023-05-21T10:59:31.241Z,5.50
2023-05-21T11:02:00.254Z,4.95
2023-05-21T11:04:28.723Z,3.33
2023-05-21T11:06:58.087Z,4.03
2023-05-21T11:09:26.297Z,9.63
2023-05-21T11:11:58.957Z,6.93
2023-05-21T11:14:32.718Z,5.07
2023-05-21T11:17:04.856Z,4.32
2023-05-21T11:19:37.811Z,2.67
2023-05-21T11:22:10.464Z,4.65
2023-05-21T11:24:39.746Z,4.10
2023-05-21T11:27:09.737Z,4.13
2023-05-21T11:29:47.352Z,3.58
2023-05-21T11:32:17.415Z,2.85
2023-05-21T11:34:47.110Z,4.00
2023-05-21T11:37:30.086Z,4.47
2023-05-21T11:39:59.463Z,7.97
2023-05-21T11:42:33.116Z,3.00
2023-05-21T11:45:01.660Z,3.20
2023-05-21T11:47:30.015Z,5.28
2023-05-21T11:50:00.165Z,12.98
2023-05-21T11:52:29.895Z,6.15
2023-05-21T11:54:58.433Z,5.80
2023-05-21T11:57:30.858Z,3.85
2023-05-21T12:00:01.556Z,5.20
2023-05-21T12:02:32.812Z,6.47
2023-05-21T12:05:01.469Z,3.88
2023-05-21T12:07:31.430Z,6.78
2023-05-21T12:09:59.896Z,6.65
2023-05-21T12:12:35.499Z,6.35
2023-05-21T12:15:13.570Z,3.10
2023-05-21T12:17:41.801Z,4.18
2023-05-21T12:20:10.960Z,2.97
2023-05-21T12:22:43.437Z,8.82
2023-05-21T12:25:12.520Z,3.53
2023-05-21T12:27:42.155Z,4.53
2023-05-21T12:30:12.254Z,4.00
2023-05-21T12:32:44.143Z,2.92
2023-05-21T12:35:23.089Z,4.80
2023-05-21T12:37:51.985Z,5.32
2023-05-21T12:40:20.484Z,6.32
2023-05-21T12:42:48.661Z,7.82
2023-05-21T12:45:19.028Z,3.60
2023-05-21T12:47:50.378Z,5.25
2023-05-21T12:50:19.827Z,3.85
2023-05-21T12:52:47.990Z,4.05
2023-05-21T12:55:16.210Z,5.28
2023-05-21T12:57:44.339Z,2.90
2023-05-21T13:00:14.371Z,6.65
2023-05-21T13:02:45.534Z,6.43
2023-05-21T13:05:18.224Z,5.63
2023-05-21T13:07:47.481Z,4.95
2023-05-21T13:10:16.718Z,4.30
2023-05-21T13:12:45.606Z,6.78
2023-05-21T13:15:13.880Z,3.10
2023-05-21T13:17:43.476Z,7.57
2023-05-21T13:20:13.093Z,10.27
2023-05-21T13:22:43.422Z,3.22
2023-05-21T13:25:11.877Z,4.38
2023-05-21T13:27:40.097Z,5.07
2023-05-21T13:30:09.615Z,5.70
2023-05-21T13:32:37.880Z,5.90
2023-05-21T13:35:07.901Z,5.10
2023-05-21T13:37:36.877Z,4.75
2023-05-21T13:40:05.907Z,2.90
2023-05-21T13:42:34.094Z,4.60
2023-05-21T13:45:02.461Z,4.82
2023-05-21T13:47:30.659Z,4.90
2023-05-21T13:49:58.757Z,4.45
2023-05-21T13:52:28.407Z,3.65
2023-05-21T13:54:56.542Z,2.78
2023-05-21T13:57:26.772Z,3.00
2023-05-21T13:59:55.067Z,5.03
2023-05-21T14:02:23.347Z,5.20
2023-05-21T14:04:51.640Z,6.32
2023-05-21T14:07:19.877Z,4.13
2023-05-21T14:09:49.461Z,6.07
2023-05-21T14:12:19.030Z,8.23
2023-05-21T14:14:49.890Z,3.28
2023-05-21T14:17:18.130Z,3.60
2023-05-21T14:19:48.008Z,7.95
2023-05-21T14:22:16.261Z,3.50
2023-05-21T14:24:45.115Z,3.10
2023-05-21T14:27:17.414Z,3.80
2023-05-21T14:29:45.932Z,8.20
2023-05-21T14:32:14.322Z,5.07
2023-05-21T14:34:42.724Z,7.35
2023-05-21T14:37:10.866Z,4.80
2023-05-21T14:39:38.990Z,4.35
2023-05-21T14:42:07.460Z,3.33
2023-05-21T14:44:36.969Z,4.78
2023-05-21T14:47:05.511Z,3.85
2023-05-21T14:49:34.006Z,4.90
2023-05-21T14:52:02.593Z,4.13
2023-05-21T14:54:30.778Z,5.57
2023-05-21T14:56:58.965Z,5.25
2023-05-21T14:59:27.101Z,4.78
2023-05-21T15:01:56.752Z,11.50
2023-05-21T15:04:25.400Z,5.82
2023-05-21T15:06:53.593Z,3.63
2023-05-21T15:09:21.748Z,4.35
2023-05-21T15:11:52.624Z,5.20
2023-05-21T15:14:20.876Z,7.82
2023-05-21T15:16:49.112Z,3.95
2023-05-21T15:19:18.669Z,4.68
2023-05-21T15:21:46.986Z,7.82
2023-05-21T15:24:15.125Z,7.82
2023-05-21T15:26:43.283Z,5.22
2023-05-21T15:29:11.449Z,3.60
2023-05-21T15:31:39.659Z,4.30
2023-05-21T15:34:07.917Z,3.67
2023-05-21T15:36:38.273Z,5.53
2023-05-21T15:39:06.590Z,6.22
2023-05-21T15:41:36.546Z,4.78
2023-05-21T15:44:04.932Z,5.35
2023-05-21T15:46:33.167Z,5.53
2023-05-21T15:49:01.353Z,4.55
2023-05-21T15:51:29.465Z,4.03
2023-05-21T15:53:59.016Z,3.75
2023-05-21T15:56:27.474Z,3.30
2023-05-21T15:58:58.295Z,3.47
2023-05-21T16:01:27.917Z,5.22
2023-05-21T16:03:56.301Z,8.77
2023-05-21T16:06:24.463Z,3.13
2023-05-21T16:08:52.706Z,5.72
2023-05-21T16:11:22.645Z,3.65
2023-05-21T16:13:50.817Z,3.30
2023-05-21T16:16:19.071Z,8.45
2023-05-21T16:18:47.289Z,4.00
2023-05-21T16:21:15.860Z,4.50
2023-05-21T16:23:44.117Z,3.95
2023-05-21T16:26:12.371Z,3.65
2023-05-21T16:28:41.963Z,4.47
2023-05-21T16:31:10.930Z,3.20
2023-05-21T16:33:39.072Z,6.78
2023-05-21T16:36:07.606Z,5.40
2023-05-21T16:38:35.837Z,5.50
2023-05-21T16:41:04.142Z,4.82
2023-05-21T16:43:32.404Z,5.07
2023-05-21T16:46:02.170Z,8.82
2023-05-21T16:48:30.408Z,4.45
2023-05-21T16:50:58.677Z,3.53
2023-05-21T16:53:26.954Z,4.57
2023-05-21T16:55:55.187Z,5.18
2023-05-21T16:58:23.375Z,4.45
2023-05-21T17:00:51.548Z,10.98
2023-05-21T17:03:21.489Z,6.22
2023-05-21T17:05:49.961Z,5.63
2023-05-21T17:08:18.184Z,5.78
2023-05-21T17:10:46.460Z,12.25
2023-05-21T17:13:22.051Z,6.10
2023-05-21T17:15:51.866Z,3.60
2023-05-21T17:18:21.460Z,3.85
2023-05-21T17:20:49.585Z,5.15
2023-05-21T17:23:17.761Z,5.18
2023-05-21T17:25:46.433Z,6.45
2023-05-21T17:28:14.852Z,8.73
2023-05-21T17:30:43.094Z,3.10
2023-05-21T17:33:12.338Z,5.05
2023-05-21T17:35:42.019Z,5.53
2023-05-21T17:38:10.494Z,3.42
2023-05-21T17:40:39.015Z,3.53
2023-05-21T17:43:07.484Z,5.50
2023-05-21T17:45:35.989Z,5.28
2023-05-21T17:48:04.375Z,5.18
2023-05-21T17:50:32.674Z,3.05
2023-05-21T17:53:02.239Z,4.57
2023-05-21T17:55:30.707Z,4.45
2023-05-21T17:57:58.866Z,4.88
2023-05-21T18:00:27.040Z,7.18
2023-05-21T18:02:55.280Z,4.75
2023-05-21T18:05:23.786Z,5.75
2023-05-21T18:07:52.119Z,3.33
2023-05-21T18:10:21.632Z,4.65
2023-05-21T18:12:49.909Z,5.15
2023-05-21T18:15:18.134Z,4.35
2023-05-21T18:17:46.622Z,4.55
2023-05-21T18:20:15.862Z,3.85
2023-05-21T18:22:45.260Z,3.42
2023-05-21T18:25:13.483Z,9.20
2023-05-21T18:27:43.038Z,7.25
2023-05-21T18:30:12.195Z,3.38
2023-05-21T18:32:40.454Z,7.47
2023-05-21T18:35:10.942Z,6.07
2023-05-21T18:37:41.701Z,9.00
2023-05-21T18:40:10.996Z,6.93
2023-05-21T18:42:39.212Z,5.95
2023-05-21T18:45:10.358Z,3.60
2023-05-21T18:47:40.281Z,6.07
2023-05-21T18:50:10.247Z,7.10
2023-05-21T18:52:38.383Z,4.05
2023-05-21T18:55:07.546Z,4.15
2023-05-21T18:57:35.751Z,3.92
2023-05-21T19:00:04.085Z,4.75
2023-05-21T19:02:33.780Z,4.10
2023-05-21T19:05:02.984Z,3.78
2023-05-21T19:07:31.184Z,3.33
2023-05-21T19:10:00.187Z,8.88
2023-05-21T19:12:29.462Z,5.13
2023-05-21T19:14:57.621Z,4.90
2023-05-21T19:17:25.926Z,4.17
2023-05-21T19:19:56.821Z,5.93
2023-05-21T19:22:25.174Z,3.70
2023-05-21T19:24:53.493Z,3.67
2023-05-21T19:27:21.602Z,4.53
2023-05-21T19:29:49.794Z,4.33
2023-05-21T19:32:17.975Z,6.03
2023-05-21T19:34:46.671Z,5.97
2023-05-21T19:37:16.751Z,4.97
2023-05-21T19:39:49.593Z,5.07
2023-05-21T19:42:18.218Z,3.53
2023-05-21T19:44:46.634Z,4.23
2023-05-21T19:47:14.889Z,8.60
2023-05-21T19:49:43.169Z,5.70
2023-05-21T19:52:12.143Z,7.10
2023-05-21T19:54:41.711Z,5.70
2023-05-21T19:57:12.308Z,3.97
2023-05-21T19:59:41.068Z,6.00
2023-05-21T20:02:12.277Z,6.63
2023-05-21T20:04:40.424Z,12.03
2023-05-21T20:07:08.813Z,6.73
2023-05-21T20:09:37.010Z,5.83
2023-05-21T20:12:07.172Z,3.90
2023-05-21T20:14:35.316Z,5.03
2023-05-21T20:17:05.685Z,4.83
2023-05-21T20:19:35.025Z,6.10
2023-05-21T20:22:03.229Z,5.00
2023-05-21T20:24:31.396Z,5.70
2023-05-21T20:27:01.762Z,7.67
2023-05-21T20:29:31.931Z,4.40
2023-05-21T20:32:00.057Z,4.57
2023-05-21T20:34:29.711Z,7.33
2023-05-21T20:36:58.411Z,6.17
2023-05-21T20:39:27.920Z,5.83
2023-05-21T20:41:56.212Z,4.93
2023-05-21T20:44:25.998Z,9.97
2023-05-21T20:46:55.515Z,7.97
2023-05-21T20:49:25.045Z,4.00
2023-05-21T20:51:53.266Z,7.00
2023-05-21T20:54:22.343Z,4.43
2023-05-21T20:56:51.212Z,4.83
2023-05-21T20:59:19.422Z,6.33
2023-05-21T21:01:47.780Z,9.03
2023-05-21T21:04:17.909Z,6.43
2023-05-21T21:06:46.617Z,6.43
2023-05-21T21:09:14.827Z,9.33
2023-05-21T21:11:42.992Z,8.13
2023-05-21T21:14:11.096Z,6.40
2023-05-21T21:16:39.257Z,8.07
2023-05-21T21:19:07.575Z,5.07
2023-05-21T21:21:37.208Z,5.47
2023-05-21T21:24:06.076Z,3.67
2023-05-21T21:26:34.267Z,8.57
2023-05-21T21:29:02.453Z,5.77
2023-05-21T21:31:30.831Z,7.40
2023-05-21T21:33:59.066Z,9.10
2023-05-21T21:36:28.917Z,11.90
2023-05-21T21:38:58.567Z,5.97
2023-05-21T21:41:26.714Z,6.37
2023-05-21T21:43:54.872Z,6.47
2023-05-21T21:46:23.263Z,5.67
2023-05-21T21:48:51.505Z,4.60
2023-05-21T21:51:23.185Z,4.57
2023-05-21T21:53:52.861Z,6.30
2023-05-21T21:56:22.416Z,5.63
2023-05-21T21:58:50.613Z,6.43
2023-05-21T22:01:19.267Z,4.47
2023-05-21T22:03:47.491Z,4.57
2023-05-21T22:06:16.158Z,4.63
2023-05-21T22:08:44.388Z,8.13
2023-05-21T22:11:12.765Z,4.60
2023-05-21T22:13:42.739Z,5.93
2023-05-21T22:16:11.936Z,4.10
2023-05-21T22:18:42.017Z,5.17
2023-05-21T22:21:10.910Z,5.03
2023-05-21T22:23:41.528Z,6.13
2023-05-21T22:26:10.295Z,4.90
2023-05-21T22:28:38.408Z,5.77
2023-05-21T22:31:08.620Z,3.33
2023-05-21T22:33:37.257Z,5.40
2023-05-21T22:36:05.902Z,5.37
2023-05-21T22:38:34.113Z,6.50
2023-05-21T22:41:02.301Z,6.97
2023-05-21T22:43:30.571Z,5.30
2023-05-21T22:45:58.805Z,3.87
2023-05-21T22:48:30.675Z,7.90
2023-05-21T22:50:59.202Z,4.87
2023-05-21T22:53:27.304Z,4.30
2023-05-21T22:55:55.509Z,6.17
2023-05-21T22:58:23.697Z,4.50
2023-05-21T23:00:51.827Z,8.07
2023-05-21T23:03:19.989Z,4.43
2023-05-21T23:05:49.592Z,7.83
2023-05-21T23:08:17.841Z,4.30
2023-05-21T23:10:46.103Z,3.93
2023-05-21T23:13:14.195Z,5.00
2023-05-21T23:15:43.859Z,6.83
2023-05-21T23:18:12.538Z,3.47
2023-05-21T23:20:41.947Z,5.73
2023-05-21T23:23:11.965Z,7.97
2023-05-21T23:25:40.133Z,3.77
2023-05-21T23:28:08.291Z,8.07
2023-05-21T23:30:36.614Z,3.70
2023-05-21T23:33:05.078Z,3.50
2023-05-21T23:35:33.338Z,5.23
2023-05-21T23:38:01.558Z,4.10
2023-05-21T23:40:31.035Z,3.60
2023-05-21T23:42:59.250Z,5.90
2023-05-21T23:45:27.457Z,7.67
2023-05-21T23:47:55.722Z,6.73
2023-05-21T23:50:26.062Z,4.87
2023-05-21T23:52:54.242Z,3.53
2023-05-21T23:55:22.377Z,9.63
2023-05-21T23:57:51.845Z,6.93
